Terminal Aerodrome Forecast
Issued by NWS

Home | Current Version | Previous Version | Text Only | Print | Product List | Glossary On
Versions: 1 2 3 4 5 6 7 8 9 10 11 12 13 14 15 16 17 18 19 20 21 22 23 24 25 26 27
646
FTUS43 KILX 241136
TAFDEC
TAF
KDEC 241136Z 2412/2512 18015G23KT P6SM SCT070
     FM241300 19016G25KT P6SM VCSH BKN040
     FM241700 22017G28KT P6SM VCTS BKN020CB
     FM242300 27017G25KT P6SM BKN045
     FM250500 28015G24KT P6SM VCSH BKN030=

USA.gov is the U.S. government's official web portal to all federal, state and local government web resources and services.